Time;durP1;ratioP1;P1;durP2;ratioP2;P2;SDS_P1;SDS_P2;PMS_P1;PMS_P2;Temp;Humidity;BMP_temperature;BMP_pressure;BME280_temperature;BME280_humidity;BME280_pressure;Samples;Min_cycle;Max_cycle;Signal;HPM_P1;HPM_P2
2023/06/27 00:00:10;;;;;;;13.23;4.63;;;;;;;17.04;100.00;94518.25;5123134;27;20192;-74
2023/06/27 00:02:38;;;;;;;10.57;4.20;;;;;;;16.95;100.00;94520.44;5124119;27;20213;-74
2023/06/27 00:05:05;;;;;;;8.80;4.65;;;;;;;16.79;100.00;94522.59;5111865;28;20569;-74
2023/06/27 00:07:32;;;;;;;8.77;4.80;;;;;;;16.74;100.00;94524.84;5111308;28;20299;-74
2023/06/27 00:09:59;;;;;;;8.55;4.97;;;;;;;16.72;100.00;94518.94;5111207;28;20281;-73
2023/06/27 00:12:30;;;;;;;7.55;4.57;;;;;;;16.77;100.00;94515.91;5114231;27;20269;-74
2023/06/27 00:14:57;;;;;;;10.98;4.75;;;;;;;16.79;100.00;94519.88;5104316;28;20699;-74
2023/06/27 00:17:24;;;;;;;6.00;3.88;;;;;;;16.76;100.00;94517.84;5108029;27;20257;-74
2023/06/27 00:19:57;;;;;;;9.52;4.15;;;;;;;16.74;100.00;94517.44;5130369;27;20203;-73
2023/06/27 00:22:24;;;;;;;8.45;4.50;;;;;;;16.76;100.00;94509.66;5109795;28;20223;-74
2023/06/27 00:24:51;;;;;;;6.00;4.55;;;;;;;16.74;100.00;94505.69;5110552;28;20649;-74
2023/06/27 00:27:18;;;;;;;6.00;4.50;;;;;;;16.79;100.00;94508.91;5110609;28;20534;-74
2023/06/27 00:29:46;;;;;;;6.95;4.72;;;;;;;16.88;100.00;94505.91;5113178;27;20232;-73
2023/06/27 00:32:13;;;;;;;6.25;4.55;;;;;;;16.80;100.00;94510.50;5121256;27;20876;-73
2023/06/27 00:34:39;;;;;;;9.85;3.78;;;;;;;16.80;100.00;94510.50;5106992;27;20217;-73
2023/06/27 00:37:07;;;;;;;7.70;4.30;;;;;;;16.81;100.00;94509.31;5099079;27;20201;-73
2023/06/27 00:39:33;;;;;;;6.60;4.45;;;;;;;16.82;100.00;94513.63;5108891;27;20266;-74
2023/06/27 00:42:00;;;;;;;7.32;4.70;;;;;;;16.80;100.00;94509.72;5124088;27;20197;-74
2023/06/27 00:44:27;;;;;;;7.55;4.10;;;;;;;16.74;100.00;94511.16;5124059;27;20213;-73
2023/06/27 00:46:55;;;;;;;8.25;4.55;;;;;;;16.70;100.00;94502.91;5109836;28;20194;-73
2023/06/27 00:49:22;;;;;;;6.82;4.25;;;;;;;16.64;100.00;94499.72;5110124;28;20226;-73
2023/06/27 00:51:50;;;;;;;5.70;4.07;;;;;;;16.63;100.00;94497.34;5109578;28;20682;-73
2023/06/27 00:54:18;;;;;;;5.07;3.75;;;;;;;16.52;100.00;94510.06;5113052;27;20245;-73
2023/06/27 00:56:46;;;;;;;7.28;3.67;;;;;;;16.49;100.00;94505.31;5115791;27;20289;-73
2023/06/27 00:59:13;;;;;;;10.00;4.32;;;;;;;16.47;100.00;94508.41;5126667;27;20209;-73
2023/06/27 01:01:39;;;;;;;7.68;4.75;;;;;;;16.40;100.00;94513.00;5128732;27;20714;-73
2023/06/27 01:04:07;;;;;;;10.50;4.25;;;;;;;16.33;100.00;94508.97;5113050;27;20202;-73
2023/06/27 01:06:41;;;;;;;8.07;4.32;;;;;;;16.29;100.00;94508.13;5118106;27;20259;-74
2023/06/27 01:09:14;;;;;;;6.40;4.30;;;;;;;16.31;100.00;94508.56;5127661;27;20238;-73
2023/06/27 01:11:46;;;;;;;6.20;4.20;;;;;;;16.21;100.00;94506.44;5117007;27;20189;-73
2023/06/27 01:14:17;;;;;;;9.52;4.38;;;;;;;16.09;100.00;94498.44;5107705;28;20207;-74
2023/06/27 01:16:47;;;;;;;9.27;4.88;;;;;;;16.16;100.00;94504.00;5110344;28;20239;-73
2023/06/27 01:19:21;;;;;;;9.85;4.78;;;;;;;16.18;100.00;94501.72;5110563;28;20186;-73
2023/06/27 01:21:49;;;;;;;5.60;4.25;;;;;;;16.18;100.00;94501.72;5115347;27;20793;-73
2023/06/27 01:24:18;;;;;;;7.63;4.45;;;;;;;16.27;100.00;94499.50;5121793;27;20189;-74
2023/06/27 01:26:45;;;;;;;10.32;4.20;;;;;;;16.25;100.00;94495.56;5126212;27;20205;-73
2023/06/27 01:29:13;;;;;;;4.88;3.85;;;;;;;16.30;100.00;94497.97;5119595;27;20760;-73
2023/06/27 01:31:42;;;;;;;6.13;4.63;;;;;;;16.26;100.00;94502.63;5110081;28;20190;-73
2023/06/27 01:34:14;;;;;;;7.60;4.53;;;;;;;16.24;100.00;94494.78;5109929;28;20250;-73
2023/06/27 01:36:45;;;;;;;8.93;4.30;;;;;;;16.19;100.00;94502.50;5114510;28;20197;-73
2023/06/27 01:39:19;;;;;;;10.38;4.18;;;;;;;16.17;100.00;94500.13;5118389;28;20190;-73
2023/06/27 01:41:52;;;;;;;6.10;3.97;;;;;;;16.00;100.00;94511.53;5122663;28;20232;-74
2023/06/27 01:44:20;;;;;;;7.55;4.43;;;;;;;16.06;100.00;94504.63;5123742;28;20266;-73
2023/06/27 01:46:49;;;;;;;6.68;4.40;;;;;;;16.06;100.00;94499.16;5109321;28;20194;-73
2023/06/27 01:49:17;;;;;;;6.18;4.35;;;;;;;16.13;100.00;94499.28;5109135;28;20246;-73
2023/06/27 01:51:44;;;;;;;8.70;4.07;;;;;;;16.09;100.00;94492.97;5109835;28;20193;-73
2023/06/27 01:54:10;;;;;;;9.93;4.38;;;;;;;16.08;100.00;94496.88;5114660;27;20270;-73
2023/06/27 01:56:37;;;;;;;7.28;4.05;;;;;;;16.04;100.00;94506.16;5107602;28;20792;-73
2023/06/27 01:59:05;;;;;;;7.30;3.92;;;;;;;15.95;100.00;94499.00;5122910;27;20205;-73
2023/06/27 02:01:32;;;;;;;5.82;3.85;;;;;;;15.97;100.00;94509.56;5112821;28;20216;-74
2023/06/27 02:04:01;;;;;;;7.53;4.10;;;;;;;15.95;100.00;94503.66;5111466;27;20206;-73
2023/06/27 02:06:27;;;;;;;5.78;4.50;;;;;;;15.91;100.00;94497.34;5120154;27;20224;-73
2023/06/27 02:08:54;;;;;;;5.72;4.20;;;;;;;15.92;100.00;94507.13;5128067;27;20197;-73
2023/06/27 02:11:21;;;;;;;12.75;5.18;;;;;;;15.95;100.00;94498.22;5123658;27;20696;-73
2023/06/27 02:13:48;;;;;;;7.38;4.47;;;;;;;16.00;100.00;94506.06;5113216;28;20560;-73
2023/06/27 02:16:16;;;;;;;9.90;4.97;;;;;;;15.98;100.00;94509.19;5113309;28;20717;-73
2023/06/27 02:18:43;;;;;;;8.00;4.15;;;;;;;16.05;100.00;94508.50;5117703;27;20648;-73
2023/06/27 02:21:10;;;;;;;9.05;4.28;;;;;;;16.06;100.00;94506.56;5122544;27;20614;-73
2023/06/27 02:23:37;;;;;;;6.53;4.05;;;;;;;16.03;100.00;94510.81;5113363;28;20280;-73
2023/06/27 02:26:04;;;;;;;6.25;4.13;;;;;;;16.08;100.00;94512.47;5113608;28;20205;-73
2023/06/27 02:28:31;;;;;;;7.25;3.55;;;;;;;16.01;100.00;94504.94;5127607;27;20201;-73
2023/06/27 02:30:58;;;;;;;7.22;4.30;;;;;;;15.98;100.00;94501.00;5118306;27;20225;-74
2023/06/27 02:33:26;;;;;;;9.63;3.45;;;;;;;15.92;100.00;94509.84;5126582;27;20201;-74
2023/06/27 02:35:52;;;;;;;9.35;4.03;;;;;;;15.90;100.00;94514.88;5131465;27;20625;-73
2023/06/27 02:38:19;;;;;;;6.13;3.90;;;;;;;15.79;100.00;94511.19;5113801;27;20655;-73
2023/06/27 02:40:46;;;;;;;5.55;3.88;;;;;;;15.75;100.00;94504.84;5117379;27;20247;-73
2023/06/27 02:43:13;;;;;;;7.53;3.67;;;;;;;15.82;100.00;94513.19;5106118;27;20715;-75
2023/06/27 02:45:40;;;;;;;10.57;4.25;;;;;;;15.87;100.00;94505.47;5104342;28;20198;-74
2023/06/27 02:48:07;;;;;;;5.45;3.42;;;;;;;15.92;100.00;94509.84;5111950;27;20667;-74
2023/06/27 02:50:36;;;;;;;5.68;3.72;;;;;;;15.95;100.00;94503.66;5106409;27;20687;-74
2023/06/27 02:53:02;;;;;;;6.38;3.85;;;;;;;15.96;100.00;94505.25;5101482;28;20672;-74
2023/06/27 02:55:29;;;;;;;5.80;3.50;;;;;;;15.94;100.00;94504.81;5105738;28;20205;-74
2023/06/27 02:57:56;;;;;;;11.07;4.03;;;;;;;15.96;100.00;94505.25;5107673;27;21581;-74
2023/06/27 03:00:22;;;;;;;7.78;3.90;;;;;;;15.99;100.00;94512.69;5105796;27;20197;-74
2023/06/27 03:02:49;;;;;;;7.93;3.40;;;;;;;16.05;100.00;94513.97;5109082;27;20223;-74
2023/06/27 03:05:16;;;;;;;6.82;3.85;;;;;;;16.33;100.00;94508.97;5109021;27;20284;-74
2023/06/27 03:07:44;;;;;;;6.13;3.97;;;;;;;16.81;100.00;94506.56;5103738;28;20255;-74
2023/06/27 03:10:11;;;;;;;6.20;4.13;;;;;;;17.46;100.00;94508.97;5107358;27;20275;-74
2023/06/27 03:12:38;;;;;;;5.38;3.40;;;;;;;18.18;98.76;94505.81;5104712;27;20202;-74
2023/06/27 03:15:05;;;;;;;4.85;3.40;;;;;;;18.74;95.00;94496.44;5105689;27;20198;-74
2023/06/27 03:17:32;;;;;;;9.10;3.63;;;;;;;19.29;89.40;94490.84;5109338;27;20264;-75
2023/06/27 03:19:59;;;;;;;6.30;3.40;;;;;;;19.71;86.58;94488.28;5104850;27;20190;-75
2023/06/27 03:22:26;;;;;;;5.50;3.25;;;;;;;20.28;83.24;94493.88;5106501;27;20550;-75
2023/06/27 03:24:54;;;;;;;4.05;2.92;;;;;;;20.67;81.66;94495.84;5102147;27;20200;-74
2023/06/27 03:27:23;;;;;;;7.88;3.72;;;;;;;21.22;78.38;94494.19;5098122;28;20197;-75
2023/06/27 03:29:50;;;;;;;7.65;3.97;;;;;;;21.38;77.47;94495.72;5106872;27;20221;-75
2023/06/27 03:32:17;;;;;;;6.38;3.22;;;;;;;21.86;76.64;94488.41;5112450;27;20201;-75
2023/06/27 03:34:44;;;;;;;5.55;3.95;;;;;;;22.44;74.72;94486.81;5111387;28;20206;-75
2023/06/27 03:37:10;;;;;;;7.20;3.90;;;;;;;23.20;73.09;94491.28;5113187;27;20210;-75
2023/06/27 03:39:38;;;;;;;7.72;4.13;;;;;;;23.43;70.67;94487.84;5119800;27;20246;-75
2023/06/27 03:42:07;;;;;;;8.77;4.80;;;;;;;23.95;68.98;94488.38;5114929;27;20244;-75
2023/06/27 03:44:34;;;;;;;5.68;4.72;;;;;;;24.30;66.62;94483.56;5125692;27;20214;-76
2023/06/27 03:47:00;;;;;;;5.40;4.63;;;;;;;25.11;65.15;94495.28;5112084;27;20277;-75
2023/06/27 03:49:27;;;;;;;9.07;4.55;;;;;;;25.23;64.14;94491.88;5122801;27;20200;-75
2023/06/27 03:51:54;;;;;;;8.55;4.97;;;;;;;25.64;63.39;94504.59;5128330;27;20265;-76
2023/06/27 03:54:21;;;;;;;12.52;6.47;;;;;;;24.96;63.90;94496.75;5126878;27;20226;-76
2023/06/27 03:56:48;;;;;;;9.93;6.10;;;;;;;24.96;66.13;94491.19;5111821;28;20194;-76
2023/06/27 03:59:16;;;;;;;6.10;4.90;;;;;;;25.66;64.16;94493.84;5116016;27;20660;-76
2023/06/27 04:01:42;;;;;;;9.75;6.53;;;;;;;26.37;61.62;94497.91;5130342;27;20196;-76
2023/06/27 04:04:09;;;;;;;11.38;6.47;;;;;;;26.50;59.43;94501.56;5113282;27;20664;-75
2023/06/27 04:06:36;;;;;;;9.90;5.80;;;;;;;26.26;58.52;94505.63;5111444;28;20198;-75
2023/06/27 04:09:03;;;;;;;12.25;6.30;;;;;;;25.76;60.36;94509.50;5111642;28;20254;-75
2023/06/27 04:11:31;;;;;;;6.65;5.40;;;;;;;26.24;59.07;94521.97;5111788;27;20641;-75
2023/06/27 04:13:59;;;;;;;9.13;6.13;;;;;;;26.70;55.69;94520.91;5120380;27;20197;-75
2023/06/27 04:16:27;;;;;;;8.82;5.95;;;;;;;26.85;55.74;94517.34;5121971;27;20630;-75
2023/06/27 04:18:54;;;;;;;7.82;5.68;;;;;;;26.87;55.87;94512.13;5130524;27;20203;-75
2023/06/27 04:21:21;;;;;;;7.45;5.47;;;;;;;27.91;53.23;94515.75;5118803;27;20197;-75
2023/06/27 04:23:48;;;;;;;8.95;5.50;;;;;;;28.93;50.51;94514.63;5117567;27;20208;-76
2023/06/27 04:26:16;;;;;;;9.93;6.25;;;;;;;29.92;49.14;94509.63;5126092;27;20480;-76
2023/06/27 04:28:44;;;;;;;7.05;5.40;;;;;;;30.15;47.86;94511.97;5104166;27;20197;-76
2023/06/27 04:31:11;;;;;;;7.05;5.60;;;;;;;30.75;46.44;94508.84;5117734;27;20259;-76
2023/06/27 04:33:39;;;;;;;7.20;5.72;;;;;;;30.44;47.62;94510.88;5110772;28;20660;-75
2023/06/27 04:36:07;;;;;;;7.85;6.22;;;;;;;31.48;44.53;94509.00;5110878;28;20202;-75
2023/06/27 04:38:37;;;;;;;9.48;6.18;;;;;;;31.39;44.88;94515.38;5097110;28;20666;-75
2023/06/27 04:41:04;;;;;;;7.78;5.85;;;;;;;31.87;44.03;94512.91;5096493;28;20198;-75
2023/06/27 04:43:32;;;;;;;8.55;5.57;;;;;;;31.22;45.40;94524.53;5109866;28;20290;-75
2023/06/27 04:45:59;;;;;;;7.88;6.75;;;;;;;31.45;44.24;94523.94;5110246;28;20201;-75
2023/06/27 04:48:25;;;;;;;8.10;6.57;;;;;;;31.19;44.88;94525.44;5100103;28;20194;-75
2023/06/27 04:50:54;;;;;;;8.18;7.05;;;;;;;31.56;43.60;94529.09;5102010;28;20229;-73
2023/06/27 04:53:21;;;;;;;9.90;6.43;;;;;;;31.77;43.42;94520.56;5098324;28;20204;-73
2023/06/27 04:55:48;;;;;;;8.75;7.30;;;;;;;30.72;44.99;94526.56;5106226;28;20729;-73
2023/06/27 04:58:15;;;;;;;9.63;7.07;;;;;;;30.64;45.24;94519.66;5109020;27;20224;-73
2023/06/27 05:00:42;;;;;;;11.93;7.45;;;;;;;29.26;48.79;94528.28;5096232;28;20198;-73
2023/06/27 05:03:09;;;;;;;12.25;7.20;;;;;;;29.95;46.51;94519.84;5109373;28;20906;-75
2023/06/27 05:05:36;;;;;;;8.68;7.03;;;;;;;31.14;43.66;94518.47;5095587;28;20269;-73
2023/06/27 05:08:04;;;;;;;10.38;6.82;;;;;;;31.52;43.76;94525.66;5119639;27;20647;-73
2023/06/27 05:10:31;;;;;;;10.25;6.97;;;;;;;31.71;43.01;94530.81;5116800;27;20299;-73
2023/06/27 05:12:59;;;;;;;10.20;6.72;;;;;;;32.86;41.01;94513.16;5100814;28;20209;-73
2023/06/27 05:15:25;;;;;;;15.32;7.18;;;;;;;34.02;38.58;94521.78;5123453;27;20197;-73
2023/06/27 05:17:54;;;;;;;9.27;7.03;;;;;;;33.07;40.13;94517.75;5127881;27;20656;-74
2023/06/27 05:20:22;;;;;;;9.43;6.68;;;;;;;33.16;40.40;94525.31;5104369;28;20202;-74
2023/06/27 05:22:49;;;;;;;8.80;7.03;;;;;;;33.41;39.21;94532.53;5100740;28;20194;-74
2023/06/27 05:25:17;;;;;;;10.18;7.28;;;;;;;31.27;42.64;94535.13;5101501;28;20202;-74
2023/06/27 05:27:44;;;;;;;9.45;7.28;;;;;;;31.02;44.30;94533.34;5109312;28;20194;-74
2023/06/27 05:30:11;;;;;;;12.23;7.10;;;;;;;31.67;42.96;94538.63;5108248;28;20635;-74
2023/06/27 05:32:38;;;;;;;10.90;7.60;;;;;;;31.89;41.04;94537.66;5108480;28;20205;-74
2023/06/27 05:35:06;;;;;;;10.25;7.75;;;;;;;32.60;41.19;94526.81;5108530;28;20201;-74
2023/06/27 05:37:32;;;;;;;7.63;6.72;;;;;;;32.84;39.75;94533.28;5096016;28;20206;-74
2023/06/27 05:39:59;;;;;;;10.95;7.35;;;;;;;33.06;40.65;94529.44;5104737;28;20266;-74
2023/06/27 05:42:27;;;;;;;9.45;7.57;;;;;;;33.39;39.80;94530.19;5107869;28;20217;-74
2023/06/27 05:44:54;;;;;;;9.90;7.00;;;;;;;33.36;39.74;94527.56;5106467;28;20217;-75
2023/06/27 05:47:21;;;;;;;8.68;7.20;;;;;;;32.29;40.96;94529.06;5104670;28;20266;-76
2023/06/27 05:49:47;;;;;;;9.45;6.97;;;;;;;33.72;39.74;94527.31;5102219;28;20209;-75
2023/06/27 05:52:14;;;;;;;9.85;7.05;;;;;;;32.56;40.83;94528.22;5102268;28;20232;-76
2023/06/27 05:54:41;;;;;;;10.00;6.88;;;;;;;33.11;40.11;94523.94;5105991;28;20549;-75
2023/06/27 05:57:08;;;;;;;12.15;7.30;;;;;;;33.19;39.96;94530.75;5108827;28;20285;-73
2023/06/27 05:59:36;;;;;;;7.97;6.85;;;;;;;33.98;38.01;94526.78;5101108;28;20206;-75
2023/06/27 06:02:03;;;;;;;12.02;7.30;;;;;;;34.44;37.32;94524.34;5100930;28;20227;-72
2023/06/27 06:04:30;;;;;;;13.38;7.57;;;;;;;32.66;40.44;94543.78;5102912;28;20285;-73
2023/06/27 06:06:58;;;;;;;9.95;7.25;;;;;;;31.78;41.46;94532.53;5099448;28;20669;-74
2023/06/27 06:09:25;;;;;;;12.50;7.68;;;;;;;32.04;41.55;94541.38;5099648;28;20194;-74
2023/06/27 06:11:52;;;;;;;8.73;6.93;;;;;;;33.30;39.54;94530.25;5097001;28;20226;-74
2023/06/27 06:14:19;;;;;;;8.32;7.05;;;;;;;32.20;40.52;94538.28;5102573;28;20228;-73
2023/06/27 06:16:47;;;;;;;9.48;7.30;;;;;;;32.91;40.17;94537.00;5109018;28;20210;-73
2023/06/27 06:19:14;;;;;;;9.18;6.78;;;;;;;31.63;40.69;94537.97;5104561;28;20206;-73
2023/06/27 06:21:41;;;;;;;9.23;6.68;;;;;;;31.32;41.63;94540.09;5099489;28;20209;-74
2023/06/27 06:24:08;;;;;;;9.90;6.30;;;;;;;31.49;41.69;94530.16;5099393;28;20339;-74
2023/06/27 06:26:35;;;;;;;10.20;6.38;;;;;;;33.21;38.61;94526.72;5100333;28;20237;-74
2023/06/27 06:29:02;;;;;;;8.05;6.47;;;;;;;32.14;39.27;94531.72;5097427;28;20204;-73
2023/06/27 06:31:29;;;;;;;10.38;6.28;;;;;;;31.34;40.85;94534.81;5095959;28;20226;-73
2023/06/27 06:33:57;;;;;;;9.38;6.70;;;;;;;31.85;40.94;94531.44;5106818;28;20622;-74
2023/06/27 06:36:24;;;;;;;8.93;6.43;;;;;;;33.20;37.96;94514.69;5102810;28;20250;-74
2023/06/27 06:38:51;;;;;;;12.50;6.75;;;;;;;33.96;36.42;94521.66;5107495;28;20272;-74
2023/06/27 06:41:18;;;;;;;9.32;5.90;;;;;;;33.04;38.66;94517.91;5106753;27;20236;-74
2023/06/27 06:43:45;;;;;;;8.65;5.65;;;;;;;32.99;38.41;94516.50;5090671;28;20278;-74
2023/06/27 06:46:12;;;;;;;6.00;5.40;;;;;;;32.65;37.87;94519.78;5108622;28;20198;-73
2023/06/27 06:48:39;;;;;;;8.98;5.65;;;;;;;34.18;37.14;94512.84;5111282;28;20213;-74
2023/06/27 06:51:08;;;;;;;7.68;6.50;;;;;;;32.70;38.60;94514.28;5111012;28;20241;-74
2023/06/27 06:53:35;;;;;;;7.20;5.63;;;;;;;30.62;42.41;94513.75;5111001;28;20216;-73
2023/06/27 06:56:02;;;;;;;7.45;6.40;;;;;;;31.49;41.50;94515.38;5110814;28;20594;-74
2023/06/27 06:58:29;;;;;;;8.70;5.40;;;;;;;32.79;40.17;94505.09;5105688;28;20225;-74
2023/06/27 07:00:55;;;;;;;7.93;6.50;;;;;;;30.32;42.44;94516.09;5110089;28;20209;-73
2023/06/27 07:03:22;;;;;;;8.82;5.80;;;;;;;30.67;42.36;94507.56;5111394;27;20255;-73
2023/06/27 07:05:49;;;;;;;7.97;6.13;;;;;;;30.06;43.81;94514.72;5109245;27;20242;-73
2023/06/27 07:08:17;;;;;;;6.10;5.38;;;;;;;30.03;45.63;94521.19;5121990;27;20559;-73
2023/06/27 07:10:44;;;;;;;9.65;5.78;;;;;;;29.09;45.81;94515.72;5092103;27;20366;-74
2023/06/27 07:13:10;;;;;;;8.05;5.20;;;;;;;28.56;46.34;94513.41;5089895;28;20207;-73
2023/06/27 07:15:37;;;;;;;8.98;5.75;;;;;;;29.58;44.77;94519.59;5109485;28;20205;-72
2023/06/27 07:18:04;;;;;;;8.15;5.65;;;;;;;30.42;43.87;94504.94;5111019;27;20202;-73
2023/06/27 07:20:31;;;;;;;8.30;5.60;;;;;;;31.22;42.62;94507.72;5090072;28;20688;-74
2023/06/27 07:22:57;;;;;;;8.40;6.03;;;;;;;31.74;40.80;94501.09;5103295;28;20198;-74
2023/06/27 07:25:28;;;;;;;9.52;6.32;;;;;;;30.51;42.59;94502.19;5112588;27;20202;-74
2023/06/27 07:27:54;;;;;;;7.95;5.45;;;;;;;30.47;43.09;94498.78;5110289;28;20221;-73
2023/06/27 07:30:21;;;;;;;7.72;5.68;;;;;;;31.11;41.88;94505.38;5110157;28;20198;-73
2023/06/27 07:32:48;;;;;;;6.93;5.63;;;;;;;30.61;43.36;94506.63;5110619;28;20301;-74
2023/06/27 07:35:15;;;;;;;14.57;6.47;;;;;;;30.76;43.33;94510.38;5107316;27;20198;-73
2023/06/27 07:37:41;;;;;;;6.95;5.68;;;;;;;28.60;46.39;94507.72;5109391;28;20660;-71
2023/06/27 07:40:10;;;;;;;10.10;5.75;;;;;;;29.42;46.69;94507.81;5109920;28;20239;-74
2023/06/27 07:42:38;;;;;;;7.72;5.55;;;;;;;29.36;45.70;94504.81;5111196;27;20233;-74
2023/06/27 07:45:05;;;;;;;8.43;6.32;;;;;;;31.14;44.24;94506.50;5106122;28;20201;-75
2023/06/27 07:47:32;;;;;;;6.65;5.93;;;;;;;30.70;44.58;94509.44;5109932;28;20197;-74
2023/06/27 07:49:59;;;;;;;7.75;6.40;;;;;;;29.19;47.55;94517.38;5107531;28;20194;-74
2023/06/27 07:52:26;;;;;;;11.60;5.93;;;;;;;28.52;47.92;94523.09;5108927;28;20217;-74
2023/06/27 07:54:52;;;;;;;9.57;6.22;;;;;;;28.92;48.41;94518.66;5113175;27;20254;-74
2023/06/27 07:57:19;;;;;;;10.70;6.28;;;;;;;27.91;49.65;94518.53;5109399;28;20689;-75
2023/06/27 07:59:47;;;;;;;8.02;5.63;;;;;;;28.62;48.01;94511.63;5110230;28;20722;-75
2023/06/27 08:02:14;;;;;;;7.57;5.70;;;;;;;29.35;48.00;94511.63;5111897;27;20193;-74
2023/06/27 08:04:41;;;;;;;6.40;5.10;;;;;;;28.13;48.21;94513.91;5109918;28;20238;-73
2023/06/27 08:07:07;;;;;;;6.47;5.63;;;;;;;28.54;47.86;94510.28;5110666;28;20217;-74
2023/06/27 08:09:34;;;;;;;8.80;5.25;;;;;;;27.77;48.79;94518.94;5110190;28;20220;-73
2023/06/27 08:12:02;;;;;;;10.30;5.85;;;;;;;27.73;49.14;94513.50;5112813;27;20225;-74
2023/06/27 08:14:29;;;;;;;6.40;5.32;;;;;;;28.40;47.31;94518.31;5108083;28;20587;-75
2023/06/27 08:16:57;;;;;;;8.45;5.47;;;;;;;29.24;47.77;94514.00;5107300;28;20213;-74
2023/06/27 08:19:24;;;;;;;6.53;4.93;;;;;;;29.90;43.36;94512.09;5105154;28;20201;-75
2023/06/27 08:21:50;;;;;;;6.72;5.43;;;;;;;30.39;43.44;94499.03;5105647;28;20692;-74
2023/06/27 08:24:17;;;;;;;8.05;5.78;;;;;;;30.82;43.78;94502.94;5104945;28;20264;-74
2023/06/27 08:26:45;;;;;;;5.95;5.30;;;;;;;31.31;40.27;94499.34;5104598;28;20568;-75
2023/06/27 08:29:11;;;;;;;9.68;5.82;;;;;;;30.64;42.19;94498.06;5105156;28;20735;-73
2023/06/27 08:31:38;;;;;;;6.50;5.45;;;;;;;30.09;43.47;94502.59;5106691;28;20230;-74
2023/06/27 08:34:06;;;;;;;7.13;5.45;;;;;;;29.37;45.42;94509.16;5117325;27;20209;-74
2023/06/27 08:36:33;;;;;;;7.63;5.38;;;;;;;28.89;43.97;94508.38;5099122;27;20881;-73
2023/06/27 08:39:00;;;;;;;5.47;4.22;;;;;;;29.37;43.53;94503.59;5088500;28;20233;-74
2023/06/27 08:41:26;;;;;;;5.93;4.78;;;;;;;30.06;42.30;94497.94;5088605;28;20618;-74
2023/06/27 08:43:54;;;;;;;5.15;4.65;;;;;;;28.46;43.62;94508.16;5096470;28;20245;-73
2023/06/27 08:46:23;;;;;;;6.00;4.38;;;;;;;28.61;43.96;94509.28;5107888;28;20225;-74
2023/06/27 08:48:53;;;;;;;4.93;4.13;;;;;;;28.55;41.14;94499.94;5107773;28;20341;-75
2023/06/27 08:51:22;;;;;;;4.68;3.63;;;;;;;28.53;40.53;94496.81;5108230;28;20224;-74
2023/06/27 08:53:50;;;;;;;5.63;3.78;;;;;;;29.02;40.85;94493.63;5108046;28;20640;-74
2023/06/27 08:56:19;;;;;;;7.30;4.22;;;;;;;29.42;41.17;94489.06;5108255;28;20213;-74
2023/06/27 08:58:49;;;;;;;5.55;4.35;;;;;;;29.23;42.10;94490.13;5107973;28;20205;-74
2023/06/27 09:01:15;;;;;;;5.68;4.38;;;;;;;29.49;45.36;94488.81;5108569;28;20740;-75
2023/06/27 09:03:42;;;;;;;6.80;4.63;;;;;;;28.89;42.79;94494.44;5108303;28;20198;-72
2023/06/27 09:06:09;;;;;;;7.38;4.47;;;;;;;28.97;43.41;94486.63;5103262;28;20254;-74
2023/06/27 09:08:37;;;;;;;5.90;4.40;;;;;;;28.63;43.35;94495.66;5116502;27;20601;-74
2023/06/27 09:11:08;;;;;;;4.90;4.40;;;;;;;28.77;43.42;94495.22;5109406;28;20674;-73
2023/06/27 09:13:36;;;;;;;5.25;4.43;;;;;;;28.75;42.43;94486.50;5108442;28;20202;-74
2023/06/27 09:16:03;;;;;;;6.07;4.68;;;;;;;29.20;42.89;94493.81;5109061;28;20215;-74
2023/06/27 09:18:30;;;;;;;5.45;4.55;;;;;;;28.91;42.38;94486.41;5108519;28;20262;-73
2023/06/27 09:20:58;;;;;;;5.40;4.70;;;;;;;29.58;43.44;94483.31;5108451;28;20205;-74
2023/06/27 09:23:28;;;;;;;5.13;4.00;;;;;;;29.01;41.24;94481.69;5108219;28;20633;-74
2023/06/27 09:26:08;;;;;;;6.45;4.90;;;;;;;29.51;41.98;94489.16;5108471;28;20297;-74
2023/06/27 09:28:45;;;;;;;5.93;4.20;;;;;;;29.92;41.40;94487.28;5108232;28;20205;-74
2023/06/27 09:31:12;;;;;;;7.13;4.55;;;;;;;30.11;41.09;94482.56;5108395;28;20202;-74
2023/06/27 09:33:39;;;;;;;6.10;4.93;;;;;;;30.50;42.60;94481.06;5103499;28;20249;-74
2023/06/27 09:36:06;;;;;;;6.35;4.88;;;;;;;29.62;41.49;94488.75;5099574;28;20250;-73
2023/06/27 09:38:33;;;;;;;7.78;4.72;;;;;;;29.31;42.02;94491.44;5101998;28;20232;-73
2023/06/27 09:41:04;;;;;;;6.15;4.50;;;;;;;29.66;41.51;94481.00;5087914;28;20231;-75
2023/06/27 09:43:36;;;;;;;7.45;4.68;;;;;;;29.77;42.72;94489.03;5098613;28;20245;-73
2023/06/27 09:46:04;;;;;;;5.60;4.13;;;;;;;30.34;40.86;94477.25;5102470;28;20189;-74
2023/06/27 09:48:31;;;;;;;6.07;4.25;;;;;;;30.31;41.94;94483.00;5108756;28;20691;-74
2023/06/27 09:50:59;;;;;;;4.93;4.20;;;;;;;29.66;39.78;94481.78;5107917;28;20247;-74
2023/06/27 09:53:26;;;;;;;6.13;4.30;;;;;;;30.35;38.69;94483.63;5105917;28;20669;-74
2023/06/27 09:55:57;;;;;;;5.35;3.65;;;;;;;28.95;41.45;94497.44;5105379;28;20194;-73
2023/06/27 09:58:28;;;;;;;6.75;4.10;;;;;;;28.22;42.15;94486.19;5107611;28;20285;-74
2023/06/27 10:01:04;;;;;;;4.20;3.72;;;;;;;28.46;41.94;94491.44;5110363;28;20197;-74
2023/06/27 10:03:31;;;;;;;5.78;4.30;;;;;;;29.19;40.76;94487.44;5107914;28;20210;-73
2023/06/27 10:05:58;;;;;;;5.15;3.83;;;;;;;29.80;37.33;94477.69;5106865;28;20197;-73
2023/06/27 10:08:26;;;;;;;4.25;3.30;;;;;;;30.03;37.87;94487.66;5108359;28;20209;-72
2023/06/27 10:10:56;;;;;;;4.35;3.72;;;;;;;30.30;38.54;94473.84;5108443;28;20599;-73
2023/06/27 10:13:23;;;;;;;5.25;4.07;;;;;;;30.77;36.70;94472.78;5108575;28;20293;-76
2023/06/27 10:15:50;;;;;;;7.75;4.03;;;;;;;30.61;37.37;94475.84;5110143;28;20266;-75
2023/06/27 10:18:18;;;;;;;5.82;4.03;;;;;;;30.78;36.88;94473.56;5106440;28;20262;-74
2023/06/27 10:20:45;;;;;;;5.82;4.13;;;;;;;30.36;38.40;94482.38;5111838;28;20197;-75
2023/06/27 10:23:13;;;;;;;5.80;4.18;;;;;;;30.66;39.94;94466.84;5111879;28;20254;-74
2023/06/27 10:25:40;;;;;;;5.18;4.40;;;;;;;30.69;39.13;94465.94;5111414;27;20206;-75
2023/06/27 10:28:08;;;;;;;6.00;3.70;;;;;;;30.65;38.79;94465.28;5109595;28;20798;-74
2023/06/27 10:30:39;;;;;;;5.20;4.03;;;;;;;30.11;38.35;94466.59;5109694;28;20194;-75
2023/06/27 10:33:10;;;;;;;6.03;3.65;;;;;;;28.78;38.70;94474.47;5112187;28;20274;-71
2023/06/27 10:35:50;;;;;;;5.53;3.40;;;;;;;28.38;39.86;94467.81;5109088;28;20198;-72
2023/06/27 10:38:18;;;;;;;5.30;3.42;;;;;;;28.92;38.44;94473.25;5107751;28;20273;-74
2023/06/27 10:41:12;;;;;;;4.10;3.50;;;;;;;29.59;38.48;94464.53;5109794;28;20540;-75
2023/06/27 10:43:40;;;;;;;4.25;3.58;;;;;;;30.45;38.72;94456.50;5092577;28;20237;-76
2023/06/27 10:46:08;;;;;;;4.50;4.05;;;;;;;29.90;37.50;94456.22;5109765;28;20224;-73
2023/06/27 10:48:36;;;;;;;4.40;3.72;;;;;;;29.69;37.74;94452.19;5110046;28;20210;-74
2023/06/27 10:51:15;;;;;;;6.18;3.58;;;;;;;29.92;36.58;94450.94;5109912;28;20251;-74
2023/06/27 10:53:43;;;;;;;4.00;3.60;;;;;;;29.79;34.98;94455.84;5109597;28;20278;-75
2023/06/27 10:56:17;;;;;;;7.57;3.75;;;;;;;29.90;37.37;94450.63;5111315;28;20223;-74
2023/06/27 10:58:47;;;;;;;5.25;4.00;;;;;;;29.78;36.29;94448.69;5110014;28;20194;-74
2023/06/27 11:01:21;;;;;;;5.07;3.60;;;;;;;30.40;35.22;94450.25;5110161;28;20242;-74
2023/06/27 11:03:57;;;;;;;5.00;3.63;;;;;;;30.65;36.28;94456.91;5111387;28;20215;-74
2023/06/27 11:06:39;;;;;;;6.65;3.50;;;;;;;31.03;36.02;94446.09;5107076;28;20190;-74
2023/06/27 11:09:07;;;;;;;6.55;4.15;;;;;;;30.60;34.28;94446.34;5110715;27;20193;-75
2023/06/27 11:11:34;;;;;;;4.20;3.70;;;;;;;30.42;33.21;94440.66;5111583;28;20193;-73
2023/06/27 11:14:06;;;;;;;4.68;3.20;;;;;;;30.71;32.83;94435.47;5109709;28;20201;-74
2023/06/27 11:16:34;;;;;;;5.53;3.65;;;;;;;30.72;33.43;94431.44;5112090;27;20225;-75
2023/06/27 11:19:00;;;;;;;5.13;3.80;;;;;;;30.98;34.51;94443.94;5110605;28;20198;-74
2023/06/27 11:21:29;;;;;;;3.83;3.40;;;;;;;31.07;32.37;94432.72;5109636;28;20194;-74
2023/06/27 11:23:57;;;;;;;5.68;3.90;;;;;;;31.36;33.14;94445.53;5108066;28;20235;-74
2023/06/27 11:26:24;;;;;;;4.28;3.55;;;;;;;31.36;30.89;94437.13;5105214;28;20190;-74
2023/06/27 11:28:50;;;;;;;3.65;3.20;;;;;;;29.96;34.98;94420.84;5109589;28;20194;-75
2023/06/27 11:31:18;;;;;;;4.55;3.75;;;;;;;30.01;36.54;94428.66;5108365;28;20194;-72